sensor_id;sensor_type;location;lat;lon;timestamp;P1;durP1;ratioP1;P2;durP2;ratioP2
70663;SDS011;58237;57.996;56.290;2022-11-20T00:00:05;7.30;;;3.03;;
70663;SDS011;58237;57.996;56.290;2022-11-20T00:02:31;3.65;;;1.77;;
70663;SDS011;58237;57.996;56.290;2022-11-20T00:04:56;9.38;;;2.00;;
70663;SDS011;58237;57.996;56.290;2022-11-20T00:07:22;5.55;;;2.42;;
70663;SDS011;58237;57.996;56.290;2022-11-20T00:09:47;5.88;;;2.63;;
70663;SDS011;58237;57.996;56.290;2022-11-20T00:12:12;5.95;;;2.22;;
70663;SDS011;58237;57.996;56.290;2022-11-20T00:14:38;6.30;;;2.58;;
70663;SDS011;58237;57.996;56.290;2022-11-20T00:17:03;8.50;;;3.05;;
70663;SDS011;58237;57.996;56.290;2022-11-20T00:19:28;5.07;;;1.67;;
70663;SDS011;58237;57.996;56.290;2022-11-20T00:21:54;13.57;;;5.28;;
70663;SDS011;58237;57.996;56.290;2022-11-20T00:24:19;9.98;;;2.63;;
70663;SDS011;58237;57.996;56.290;2022-11-20T00:26:44;6.82;;;2.70;;
70663;SDS011;58237;57.996;56.290;2022-11-20T00:29:10;6.68;;;2.40;;
70663;SDS011;58237;57.996;56.290;2022-11-20T00:31:35;5.93;;;2.03;;
70663;SDS011;58237;57.996;56.290;2022-11-20T00:34:00;5.28;;;2.22;;
70663;SDS011;58237;57.996;56.290;2022-11-20T00:36:26;12.02;;;3.95;;
70663;SDS011;58237;57.996;56.290;2022-11-20T00:38:52;7.07;;;3.28;;
70663;SDS011;58237;57.996;56.290;2022-11-20T00:41:18;6.28;;;1.90;;
70663;SDS011;58237;57.996;56.290;2022-11-20T00:43:43;6.18;;;2.10;;
70663;SDS011;58237;57.996;56.290;2022-11-20T00:46:12;6.80;;;2.47;;
70663;SDS011;58237;57.996;56.290;2022-11-20T00:48:38;7.57;;;2.38;;
70663;SDS011;58237;57.996;56.290;2022-11-20T00:51:03;9.00;;;2.70;;
70663;SDS011;58237;57.996;56.290;2022-11-20T00:53:29;7.80;;;3.13;;
70663;SDS011;58237;57.996;56.290;2022-11-20T00:55:59;8.75;;;2.60;;
70663;SDS011;58237;57.996;56.290;2022-11-20T00:58:25;6.93;;;2.65;;
70663;SDS011;58237;57.996;56.290;2022-11-20T01:00:50;10.65;;;3.53;;
70663;SDS011;58237;57.996;56.290;2022-11-20T01:03:16;10.40;;;3.28;;
70663;SDS011;58237;57.996;56.290;2022-11-20T01:05:41;6.82;;;3.45;;
70663;SDS011;58237;57.996;56.290;2022-11-20T01:08:07;9.68;;;2.70;;
70663;SDS011;58237;57.996;56.290;2022-11-20T01:10:32;8.48;;;2.47;;
70663;SDS011;58237;57.996;56.290;2022-11-20T01:12:57;7.97;;;3.30;;
70663;SDS011;58237;57.996;56.290;2022-11-20T01:15:23;8.15;;;4.07;;
70663;SDS011;58237;57.996;56.290;2022-11-20T01:17:48;5.93;;;2.85;;
70663;SDS011;58237;57.996;56.290;2022-11-20T01:20:13;7.65;;;3.15;;
70663;SDS011;58237;57.996;56.290;2022-11-20T01:22:39;10.77;;;4.05;;
70663;SDS011;58237;57.996;56.290;2022-11-20T01:25:04;8.88;;;4.38;;
70663;SDS011;58237;57.996;56.290;2022-11-20T01:27:30;9.88;;;3.97;;
70663;SDS011;58237;57.996;56.290;2022-11-20T01:29:55;3.67;;;2.05;;
70663;SDS011;58237;57.996;56.290;2022-11-20T01:32:20;9.23;;;4.22;;
70663;SDS011;58237;57.996;56.290;2022-11-20T01:34:46;10.93;;;5.47;;
70663;SDS011;58237;57.996;56.290;2022-11-20T01:37:11;8.10;;;2.42;;
70663;SDS011;58237;57.996;56.290;2022-11-20T01:39:36;8.00;;;2.67;;
70663;SDS011;58237;57.996;56.290;2022-11-20T01:42:01;5.00;;;2.20;;
70663;SDS011;58237;57.996;56.290;2022-11-20T01:44:48;7.75;;;3.35;;
70663;SDS011;58237;57.996;56.290;2022-11-20T01:47:13;10.27;;;3.45;;
70663;SDS011;58237;57.996;56.290;2022-11-20T01:49:41;7.50;;;2.85;;
70663;SDS011;58237;57.996;56.290;2022-11-20T01:52:11;8.75;;;4.22;;
70663;SDS011;58237;57.996;56.290;2022-11-20T01:54:42;8.07;;;2.88;;
70663;SDS011;58237;57.996;56.290;2022-11-20T01:57:09;12.85;;;4.75;;
70663;SDS011;58237;57.996;56.290;2022-11-20T01:59:35;12.90;;;5.50;;
70663;SDS011;58237;57.996;56.290;2022-11-20T02:02:02;14.65;;;4.25;;
70663;SDS011;58237;57.996;56.290;2022-11-20T02:04:27;6.35;;;2.75;;
70663;SDS011;58237;57.996;56.290;2022-11-20T02:06:59;10.73;;;4.38;;
70663;SDS011;58237;57.996;56.290;2022-11-20T02:09:25;7.80;;;3.97;;
70663;SDS011;58237;57.996;56.290;2022-11-20T02:11:51;9.23;;;3.60;;
70663;SDS011;58237;57.996;56.290;2022-11-20T02:14:17;9.50;;;3.33;;
70663;SDS011;58237;57.996;56.290;2022-11-20T02:16:48;9.25;;;3.00;;
70663;SDS011;58237;57.996;56.290;2022-11-20T02:19:25;10.77;;;4.80;;
70663;SDS011;58237;57.996;56.290;2022-11-20T02:21:56;12.45;;;4.20;;
70663;SDS011;58237;57.996;56.290;2022-11-20T02:24:24;5.93;;;3.07;;
70663;SDS011;58237;57.996;56.290;2022-11-20T02:26:51;10.40;;;3.00;;
70663;SDS011;58237;57.996;56.290;2022-11-20T02:29:18;7.88;;;2.30;;
70663;SDS011;58237;57.996;56.290;2022-11-20T02:31:44;7.00;;;2.50;;
70663;SDS011;58237;57.996;56.290;2022-11-20T02:34:10;6.03;;;2.30;;
70663;SDS011;58237;57.996;56.290;2022-11-20T02:36:35;5.50;;;1.55;;
70663;SDS011;58237;57.996;56.290;2022-11-20T02:39:02;8.75;;;3.03;;
70663;SDS011;58237;57.996;56.290;2022-11-20T02:41:35;7.97;;;2.90;;
70663;SDS011;58237;57.996;56.290;2022-11-20T02:44:00;10.30;;;4.00;;
70663;SDS011;58237;57.996;56.290;2022-11-20T02:46:26;9.88;;;3.25;;
70663;SDS011;58237;57.996;56.290;2022-11-20T02:48:51;10.82;;;3.92;;
70663;SDS011;58237;57.996;56.290;2022-11-20T02:51:16;10.95;;;4.10;;
70663;SDS011;58237;57.996;56.290;2022-11-20T02:53:42;7.93;;;2.97;;
70663;SDS011;58237;57.996;56.290;2022-11-20T02:56:07;8.57;;;3.63;;
70663;SDS011;58237;57.996;56.290;2022-11-20T02:58:32;7.85;;;4.03;;
70663;SDS011;58237;57.996;56.290;2022-11-20T03:00:58;9.43;;;3.70;;
70663;SDS011;58237;57.996;56.290;2022-11-20T03:03:23;10.68;;;3.60;;
70663;SDS011;58237;57.996;56.290;2022-11-20T03:05:48;8.43;;;3.60;;
70663;SDS011;58237;57.996;56.290;2022-11-20T03:08:14;9.32;;;2.55;;
70663;SDS011;58237;57.996;56.290;2022-11-20T03:10:39;11.60;;;3.28;;
70663;SDS011;58237;57.996;56.290;2022-11-20T03:13:04;11.52;;;4.63;;
70663;SDS011;58237;57.996;56.290;2022-11-20T03:15:29;5.47;;;2.55;;
70663;SDS011;58237;57.996;56.290;2022-11-20T03:17:55;9.75;;;3.70;;
70663;SDS011;58237;57.996;56.290;2022-11-20T03:20:20;10.15;;;4.10;;
70663;SDS011;58237;57.996;56.290;2022-11-20T03:22:46;11.88;;;4.20;;
70663;SDS011;58237;57.996;56.290;2022-11-20T03:25:11;8.80;;;3.42;;
70663;SDS011;58237;57.996;56.290;2022-11-20T03:27:36;15.50;;;3.92;;
70663;SDS011;58237;57.996;56.290;2022-11-20T03:30:02;5.00;;;2.45;;
70663;SDS011;58237;57.996;56.290;2022-11-20T03:32:28;10.38;;;3.90;;
70663;SDS011;58237;57.996;56.290;2022-11-20T03:34:53;12.25;;;2.90;;
70663;SDS011;58237;57.996;56.290;2022-11-20T03:37:19;7.28;;;3.55;;
70663;SDS011;58237;57.996;56.290;2022-11-20T03:39:44;8.77;;;3.35;;
70663;SDS011;58237;57.996;56.290;2022-11-20T03:42:09;9.00;;;3.65;;
70663;SDS011;58237;57.996;56.290;2022-11-20T03:44:35;10.20;;;3.60;;
70663;SDS011;58237;57.996;56.290;2022-11-20T03:47:00;8.85;;;3.72;;
70663;SDS011;58237;57.996;56.290;2022-11-20T03:49:25;9.13;;;4.45;;
70663;SDS011;58237;57.996;56.290;2022-11-20T03:51:51;11.75;;;4.78;;
70663;SDS011;58237;57.996;56.290;2022-11-20T03:54:16;7.68;;;2.80;;
70663;SDS011;58237;57.996;56.290;2022-11-20T03:56:41;8.43;;;3.42;;
70663;SDS011;58237;57.996;56.290;2022-11-20T03:59:09;7.60;;;3.58;;
70663;SDS011;58237;57.996;56.290;2022-11-20T04:01:35;10.32;;;3.65;;
70663;SDS011;58237;57.996;56.290;2022-11-20T04:04:01;7.28;;;3.40;;
70663;SDS011;58237;57.996;56.290;2022-11-20T04:06:27;7.75;;;3.03;;
70663;SDS011;58237;57.996;56.290;2022-11-20T04:08:54;10.00;;;3.97;;
70663;SDS011;58237;57.996;56.290;2022-11-20T04:11:23;9.68;;;3.88;;
70663;SDS011;58237;57.996;56.290;2022-11-20T04:13:50;10.27;;;5.25;;
70663;SDS011;58237;57.996;56.290;2022-11-20T04:16:15;11.48;;;4.18;;
70663;SDS011;58237;57.996;56.290;2022-11-20T04:18:41;10.38;;;4.07;;
70663;SDS011;58237;57.996;56.290;2022-11-20T04:21:07;13.45;;;4.68;;
70663;SDS011;58237;57.996;56.290;2022-11-20T04:23:32;14.63;;;6.53;;
70663;SDS011;58237;57.996;56.290;2022-11-20T04:26:01;7.90;;;3.60;;
70663;SDS011;58237;57.996;56.290;2022-11-20T04:28:27;9.60;;;3.17;;
70663;SDS011;58237;57.996;56.290;2022-11-20T04:30:52;15.35;;;6.05;;
70663;SDS011;58237;57.996;56.290;2022-11-20T04:33:17;14.25;;;6.22;;
70663;SDS011;58237;57.996;56.290;2022-11-20T04:35:42;9.40;;;4.75;;
70663;SDS011;58237;57.996;56.290;2022-11-20T04:38:09;9.88;;;3.47;;
70663;SDS011;58237;57.996;56.290;2022-11-20T04:40:34;14.55;;;4.70;;
70663;SDS011;58237;57.996;56.290;2022-11-20T04:43:00;9.80;;;4.22;;
70663;SDS011;58237;57.996;56.290;2022-11-20T04:45:25;15.15;;;5.72;;
70663;SDS011;58237;57.996;56.290;2022-11-20T04:47:50;10.70;;;5.30;;
70663;SDS011;58237;57.996;56.290;2022-11-20T04:50:16;13.00;;;6.57;;
70663;SDS011;58237;57.996;56.290;2022-11-20T04:52:41;11.55;;;5.13;;
70663;SDS011;58237;57.996;56.290;2022-11-20T04:55:06;13.40;;;4.70;;
70663;SDS011;58237;57.996;56.290;2022-11-20T04:57:32;11.13;;;5.70;;
70663;SDS011;58237;57.996;56.290;2022-11-20T04:59:57;16.52;;;5.90;;
70663;SDS011;58237;57.996;56.290;2022-11-20T05:02:23;12.90;;;4.57;;
70663;SDS011;58237;57.996;56.290;2022-11-20T05:04:48;11.73;;;4.30;;
70663;SDS011;58237;57.996;56.290;2022-11-20T05:07:13;6.45;;;2.85;;
70663;SDS011;58237;57.996;56.290;2022-11-20T05:09:39;11.70;;;5.28;;
70663;SDS011;58237;57.996;56.290;2022-11-20T05:12:04;10.77;;;5.25;;
70663;SDS011;58237;57.996;56.290;2022-11-20T05:14:29;8.77;;;3.50;;
70663;SDS011;58237;57.996;56.290;2022-11-20T05:16:55;9.93;;;4.72;;
70663;SDS011;58237;57.996;56.290;2022-11-20T05:19:20;9.57;;;3.75;;
70663;SDS011;58237;57.996;56.290;2022-11-20T05:21:45;11.55;;;5.53;;
70663;SDS011;58237;57.996;56.290;2022-11-20T05:24:11;14.00;;;5.90;;
70663;SDS011;58237;57.996;56.290;2022-11-20T05:26:36;12.88;;;4.93;;
70663;SDS011;58237;57.996;56.290;2022-11-20T05:29:01;9.13;;;3.42;;
70663;SDS011;58237;57.996;56.290;2022-11-20T05:31:27;10.55;;;5.07;;
70663;SDS011;58237;57.996;56.290;2022-11-20T05:33:52;14.43;;;5.63;;
70663;SDS011;58237;57.996;56.290;2022-11-20T05:36:17;12.38;;;4.53;;
70663;SDS011;58237;57.996;56.290;2022-11-20T05:38:43;14.48;;;5.65;;
70663;SDS011;58237;57.996;56.290;2022-11-20T05:41:18;19.60;;;7.75;;
70663;SDS011;58237;57.996;56.290;2022-11-20T05:43:45;18.15;;;7.35;;
70663;SDS011;58237;57.996;56.290;2022-11-20T05:46:11;15.68;;;6.85;;
70663;SDS011;58237;57.996;56.290;2022-11-20T05:48:37;16.40;;;5.90;;
70663;SDS011;58237;57.996;56.290;2022-11-20T05:51:03;12.45;;;6.03;;
70663;SDS011;58237;57.996;56.290;2022-11-20T05:53:29;14.98;;;4.25;;
70663;SDS011;58237;57.996;56.290;2022-11-20T05:56:00;13.20;;;6.75;;
70663;SDS011;58237;57.996;56.290;2022-11-20T05:58:26;14.55;;;6.68;;
70663;SDS011;58237;57.996;56.290;2022-11-20T06:00:52;13.93;;;4.50;;
70663;SDS011;58237;57.996;56.290;2022-11-20T06:03:17;10.40;;;3.97;;
70663;SDS011;58237;57.996;56.290;2022-11-20T06:05:42;15.60;;;6.95;;
70663;SDS011;58237;57.996;56.290;2022-11-20T06:08:08;12.68;;;4.95;;
70663;SDS011;58237;57.996;56.290;2022-11-20T06:10:33;7.80;;;4.50;;
70663;SDS011;58237;57.996;56.290;2022-11-20T06:12:58;13.68;;;5.03;;
70663;SDS011;58237;57.996;56.290;2022-11-20T06:15:24;11.70;;;5.25;;
70663;SDS011;58237;57.996;56.290;2022-11-20T06:17:53;9.88;;;4.10;;
70663;SDS011;58237;57.996;56.290;2022-11-20T06:20:19;15.13;;;5.95;;
70663;SDS011;58237;57.996;56.290;2022-11-20T06:22:44;15.90;;;5.90;;
70663;SDS011;58237;57.996;56.290;2022-11-20T06:25:10;11.77;;;3.60;;
70663;SDS011;58237;57.996;56.290;2022-11-20T06:27:35;14.35;;;4.97;;
70663;SDS011;58237;57.996;56.290;2022-11-20T06:30:00;16.40;;;6.88;;
70663;SDS011;58237;57.996;56.290;2022-11-20T06:32:26;15.23;;;6.45;;
70663;SDS011;58237;57.996;56.290;2022-11-20T06:34:51;15.45;;;7.50;;
70663;SDS011;58237;57.996;56.290;2022-11-20T06:37:16;11.35;;;4.82;;
70663;SDS011;58237;57.996;56.290;2022-11-20T06:39:42;14.98;;;6.72;;
70663;SDS011;58237;57.996;56.290;2022-11-20T06:42:07;17.08;;;5.60;;
70663;SDS011;58237;57.996;56.290;2022-11-20T06:44:32;13.30;;;4.95;;
70663;SDS011;58237;57.996;56.290;2022-11-20T06:46:58;17.10;;;5.45;;
70663;SDS011;58237;57.996;56.290;2022-11-20T06:49:23;10.98;;;3.92;;
70663;SDS011;58237;57.996;56.290;2022-11-20T06:51:48;18.17;;;8.05;;
70663;SDS011;58237;57.996;56.290;2022-11-20T06:54:14;14.85;;;5.28;;
70663;SDS011;58237;57.996;56.290;2022-11-20T06:56:39;16.50;;;7.38;;
70663;SDS011;58237;57.996;56.290;2022-11-20T06:59:05;20.35;;;8.80;;
70663;SDS011;58237;57.996;56.290;2022-11-20T07:01:31;16.55;;;7.30;;
70663;SDS011;58237;57.996;56.290;2022-11-20T07:03:56;27.20;;;9.15;;
70663;SDS011;58237;57.996;56.290;2022-11-20T07:06:21;20.83;;;7.80;;
70663;SDS011;58237;57.996;56.290;2022-11-20T07:08:47;18.95;;;7.10;;
70663;SDS011;58237;57.996;56.290;2022-11-20T07:11:12;14.80;;;6.65;;
70663;SDS011;58237;57.996;56.290;2022-11-20T07:13:37;29.83;;;11.23;;
70663;SDS011;58237;57.996;56.290;2022-11-20T07:16:04;18.77;;;7.38;;
70663;SDS011;58237;57.996;56.290;2022-11-20T07:18:30;19.55;;;6.93;;
70663;SDS011;58237;57.996;56.290;2022-11-20T07:20:55;20.00;;;8.75;;
70663;SDS011;58237;57.996;56.290;2022-11-20T07:23:21;17.13;;;7.47;;
70663;SDS011;58237;57.996;56.290;2022-11-20T07:25:46;20.50;;;9.43;;
70663;SDS011;58237;57.996;56.290;2022-11-20T07:28:11;15.93;;;6.93;;
70663;SDS011;58237;57.996;56.290;2022-11-20T07:30:37;20.20;;;8.80;;
70663;SDS011;58237;57.996;56.290;2022-11-20T07:33:02;18.17;;;7.40;;
70663;SDS011;58237;57.996;56.290;2022-11-20T07:35:27;17.33;;;7.00;;
70663;SDS011;58237;57.996;56.290;2022-11-20T07:37:53;19.05;;;7.57;;
70663;SDS011;58237;57.996;56.290;2022-11-20T07:40:18;16.73;;;7.15;;
70663;SDS011;58237;57.996;56.290;2022-11-20T07:42:47;22.02;;;9.65;;
70663;SDS011;58237;57.996;56.290;2022-11-20T07:45:13;30.58;;;12.27;;
70663;SDS011;58237;57.996;56.290;2022-11-20T07:47:38;19.88;;;10.18;;
70663;SDS011;58237;57.996;56.290;2022-11-20T07:50:03;23.80;;;9.35;;
70663;SDS011;58237;57.996;56.290;2022-11-20T07:52:29;17.45;;;5.78;;
70663;SDS011;58237;57.996;56.290;2022-11-20T07:54:54;15.80;;;5.55;;
70663;SDS011;58237;57.996;56.290;2022-11-20T07:57:19;21.48;;;7.13;;
70663;SDS011;58237;57.996;56.290;2022-11-20T07:59:45;16.90;;;8.15;;
70663;SDS011;58237;57.996;56.290;2022-11-20T08:02:10;23.23;;;10.98;;
70663;SDS011;58237;57.996;56.290;2022-11-20T08:04:36;20.63;;;9.45;;
70663;SDS011;58237;57.996;56.290;2022-11-20T08:07:01;25.90;;;12.27;;
70663;SDS011;58237;57.996;56.290;2022-11-20T08:09:26;18.65;;;7.43;;
70663;SDS011;58237;57.996;56.290;2022-11-20T08:11:52;29.63;;;11.77;;
70663;SDS011;58237;57.996;56.290;2022-11-20T08:14:17;33.25;;;10.13;;
70663;SDS011;58237;57.996;56.290;2022-11-20T08:16:46;23.25;;;9.63;;
70663;SDS011;58237;57.996;56.290;2022-11-20T08:19:12;22.73;;;9.18;;
70663;SDS011;58237;57.996;56.290;2022-11-20T08:21:38;22.95;;;11.13;;
70663;SDS011;58237;57.996;56.290;2022-11-20T08:24:03;25.55;;;12.15;;
70663;SDS011;58237;57.996;56.290;2022-11-20T08:26:29;23.98;;;9.88;;
70663;SDS011;58237;57.996;56.290;2022-11-20T08:28:54;27.70;;;10.50;;
70663;SDS011;58237;57.996;56.290;2022-11-20T08:31:20;25.67;;;11.35;;
70663;SDS011;58237;57.996;56.290;2022-11-20T08:33:46;26.30;;;10.23;;
70663;SDS011;58237;57.996;56.290;2022-11-20T08:36:11;32.88;;;13.02;;
70663;SDS011;58237;57.996;56.290;2022-11-20T08:38:37;21.95;;;9.85;;
70663;SDS011;58237;57.996;56.290;2022-11-20T08:41:03;25.02;;;9.10;;
70663;SDS011;58237;57.996;56.290;2022-11-20T08:43:29;19.77;;;9.20;;
70663;SDS011;58237;57.996;56.290;2022-11-20T08:45:56;19.48;;;8.93;;
70663;SDS011;58237;57.996;56.290;2022-11-20T08:48:21;26.10;;;10.77;;
70663;SDS011;58237;57.996;56.290;2022-11-20T08:50:46;23.60;;;9.55;;
70663;SDS011;58237;57.996;56.290;2022-11-20T08:53:12;23.02;;;9.70;;
70663;SDS011;58237;57.996;56.290;2022-11-20T08:55:37;22.85;;;8.98;;
70663;SDS011;58237;57.996;56.290;2022-11-20T08:58:03;29.33;;;10.23;;
70663;SDS011;58237;57.996;56.290;2022-11-20T09:00:28;27.45;;;11.10;;
70663;SDS011;58237;57.996;56.290;2022-11-20T09:02:53;20.30;;;9.50;;
70663;SDS011;58237;57.996;56.290;2022-11-20T09:05:19;36.65;;;14.23;;
70663;SDS011;58237;57.996;56.290;2022-11-20T09:07:44;25.52;;;10.10;;
70663;SDS011;58237;57.996;56.290;2022-11-20T09:10:09;28.13;;;11.25;;
70663;SDS011;58237;57.996;56.290;2022-11-20T09:12:35;38.42;;;15.48;;
70663;SDS011;58237;57.996;56.290;2022-11-20T09:15:00;31.05;;;11.60;;
70663;SDS011;58237;57.996;56.290;2022-11-20T09:17:26;29.15;;;11.52;;
70663;SDS011;58237;57.996;56.290;2022-11-20T09:19:51;22.23;;;9.73;;
70663;SDS011;58237;57.996;56.290;2022-11-20T09:22:16;23.35;;;8.82;;
70663;SDS011;58237;57.996;56.290;2022-11-20T09:24:41;19.27;;;9.25;;
70663;SDS011;58237;57.996;56.290;2022-11-20T09:27:07;20.40;;;8.63;;
70663;SDS011;58237;57.996;56.290;2022-11-20T09:29:32;26.48;;;10.73;;
70663;SDS011;58237;57.996;56.290;2022-11-20T09:31:57;21.65;;;8.93;;
70663;SDS011;58237;57.996;56.290;2022-11-20T09:34:23;20.63;;;8.55;;
70663;SDS011;58237;57.996;56.290;2022-11-20T09:36:48;21.17;;;9.80;;
70663;SDS011;58237;57.996;56.290;2022-11-20T09:39:13;25.58;;;9.93;;
70663;SDS011;58237;57.996;56.290;2022-11-20T09:46:47;20.88;;;7.38;;
70663;SDS011;58237;57.996;56.290;2022-11-20T09:52:00;17.45;;;6.90;;
70663;SDS011;58237;57.996;56.290;2022-11-20T09:54:30;23.70;;;10.57;;
70663;SDS011;58237;57.996;56.290;2022-11-20T09:57:00;25.52;;;10.65;;
70663;SDS011;58237;57.996;56.290;2022-11-20T09:59:38;27.13;;;12.05;;
70663;SDS011;58237;57.996;56.290;2022-11-20T10:04:49;26.23;;;8.95;;
70663;SDS011;58237;57.996;56.290;2022-11-20T10:07:18;20.70;;;9.60;;
70663;SDS011;58237;57.996;56.290;2022-11-20T10:09:49;17.55;;;7.85;;
70663;SDS011;58237;57.996;56.290;2022-11-20T10:12:19;16.50;;;8.40;;
70663;SDS011;58237;57.996;56.290;2022-11-20T10:20:23;13.45;;;6.88;;
70663;SDS011;58237;57.996;56.290;2022-11-20T10:25:38;28.00;;;10.23;;
70663;SDS011;58237;57.996;56.290;2022-11-20T10:28:28;23.63;;;9.30;;
70663;SDS011;58237;57.996;56.290;2022-11-20T10:30:51;16.60;;;7.32;;
70663;SDS011;58237;57.996;56.290;2022-11-20T10:33:21;18.67;;;6.57;;
70663;SDS011;58237;57.996;56.290;2022-11-20T10:35:52;17.08;;;6.30;;
70663;SDS011;58237;57.996;56.290;2022-11-20T10:40:46;14.73;;;6.97;;
70663;SDS011;58237;57.996;56.290;2022-11-20T10:43:28;13.70;;;7.00;;
70663;SDS011;58237;57.996;56.290;2022-11-20T10:48:23;23.30;;;7.75;;
70663;SDS011;58237;57.996;56.290;2022-11-20T10:51:35;22.08;;;9.48;;
70663;SDS011;58237;57.996;56.290;2022-11-20T10:56:24;25.35;;;10.63;;
70663;SDS011;58237;57.996;56.290;2022-11-20T10:59:04;21.67;;;9.43;;
70663;SDS011;58237;57.996;56.290;2022-11-20T11:01:42;20.45;;;8.05;;
70663;SDS011;58237;57.996;56.290;2022-11-20T11:04:21;22.80;;;7.05;;
70663;SDS011;58237;57.996;56.290;2022-11-20T11:06:48;20.88;;;9.18;;
70663;SDS011;58237;57.996;56.290;2022-11-20T11:09:19;15.90;;;7.55;;
70663;SDS011;58237;57.996;56.290;2022-11-20T11:11:46;19.17;;;8.80;;
70663;SDS011;58237;57.996;56.290;2022-11-20T11:14:12;27.90;;;10.18;;
70663;SDS011;58237;57.996;56.290;2022-11-20T11:16:51;24.13;;;8.45;;
70663;SDS011;58237;57.996;56.290;2022-11-20T11:19:17;25.92;;;11.50;;
70663;SDS011;58237;57.996;56.290;2022-11-20T11:21:52;33.55;;;12.38;;
70663;SDS011;58237;57.996;56.290;2022-11-20T11:24:28;19.80;;;8.65;;
70663;SDS011;58237;57.996;56.290;2022-11-20T11:27:09;19.98;;;9.63;;
70663;SDS011;58237;57.996;56.290;2022-11-20T11:29:35;33.55;;;13.07;;
70663;SDS011;58237;57.996;56.290;2022-11-20T11:32:08;23.63;;;9.35;;
70663;SDS011;58237;57.996;56.290;2022-11-20T11:34:36;30.98;;;13.13;;
70663;SDS011;58237;57.996;56.290;2022-11-20T11:37:01;32.05;;;12.02;;
70663;SDS011;58237;57.996;56.290;2022-11-20T11:39:27;29.58;;;10.43;;
70663;SDS011;58237;57.996;56.290;2022-11-20T11:41:53;23.60;;;10.70;;
70663;SDS011;58237;57.996;56.290;2022-11-20T11:46:54;26.17;;;10.55;;
70663;SDS011;58237;57.996;56.290;2022-11-20T11:49:20;27.65;;;9.95;;
70663;SDS011;58237;57.996;56.290;2022-11-20T11:51:57;15.23;;;7.45;;
70663;SDS011;58237;57.996;56.290;2022-11-20T11:54:24;25.25;;;11.27;;
70663;SDS011;58237;57.996;56.290;2022-11-20T11:56:50;21.45;;;9.73;;
70663;SDS011;58237;57.996;56.290;2022-11-20T11:59:27;30.30;;;14.30;;
70663;SDS011;58237;57.996;56.290;2022-11-20T12:01:57;25.15;;;9.98;;
70663;SDS011;58237;57.996;56.290;2022-11-20T12:04:35;31.92;;;14.15;;
70663;SDS011;58237;57.996;56.290;2022-11-20T12:07:15;30.27;;;11.43;;
70663;SDS011;58237;57.996;56.290;2022-11-20T12:09:46;27.67;;;12.13;;
70663;SDS011;58237;57.996;56.290;2022-11-20T12:12:16;44.10;;;17.98;;
70663;SDS011;58237;57.996;56.290;2022-11-20T12:14:43;42.22;;;16.42;;
70663;SDS011;58237;57.996;56.290;2022-11-20T12:17:11;41.85;;;16.55;;
70663;SDS011;58237;57.996;56.290;2022-11-20T12:19:37;36.53;;;13.65;;
70663;SDS011;58237;57.996;56.290;2022-11-20T12:30:21;39.42;;;16.73;;
70663;SDS011;58237;57.996;56.290;2022-11-20T12:40:28;52.67;;;21.35;;
70663;SDS011;58237;57.996;56.290;2022-11-20T12:43:19;34.30;;;14.30;;
70663;SDS011;58237;57.996;56.290;2022-11-20T12:45:46;45.03;;;15.73;;
70663;SDS011;58237;57.996;56.290;2022-11-20T12:48:28;29.38;;;12.50;;
70663;SDS011;58237;57.996;56.290;2022-11-20T12:58:43;43.60;;;15.20;;
70663;SDS011;58237;57.996;56.290;2022-11-20T13:06:19;25.88;;;13.15;;
70663;SDS011;58237;57.996;56.290;2022-11-20T13:08:49;40.58;;;16.55;;
70663;SDS011;58237;57.996;56.290;2022-11-20T13:14:18;52.67;;;25.52;;
70663;SDS011;58237;57.996;56.290;2022-11-20T13:16:53;62.20;;;28.10;;
70663;SDS011;58237;57.996;56.290;2022-11-20T13:19:19;64.32;;;26.85;;
70663;SDS011;58237;57.996;56.290;2022-11-20T13:21:46;56.70;;;24.40;;
70663;SDS011;58237;57.996;56.290;2022-11-20T13:26:43;62.35;;;25.17;;
70663;SDS011;58237;57.996;56.290;2022-11-20T13:29:11;48.67;;;18.55;;
70663;SDS011;58237;57.996;56.290;2022-11-20T13:31:38;51.63;;;23.83;;
70663;SDS011;58237;57.996;56.290;2022-11-20T13:34:05;44.45;;;17.38;;
70663;SDS011;58237;57.996;56.290;2022-11-20T13:36:32;51.50;;;21.08;;
70663;SDS011;58237;57.996;56.290;2022-11-20T13:38:58;59.83;;;25.83;;
70663;SDS011;58237;57.996;56.290;2022-11-20T13:41:31;34.70;;;17.92;;
70663;SDS011;58237;57.996;56.290;2022-11-20T13:44:04;47.30;;;21.08;;
70663;SDS011;58237;57.996;56.290;2022-11-20T13:46:41;46.90;;;21.33;;
70663;SDS011;58237;57.996;56.290;2022-11-20T13:49:07;48.75;;;20.52;;
70663;SDS011;58237;57.996;56.290;2022-11-20T13:51:49;38.65;;;18.30;;
70663;SDS011;58237;57.996;56.290;2022-11-20T13:57:01;39.50;;;18.48;;
70663;SDS011;58237;57.996;56.290;2022-11-20T13:59:47;40.58;;;18.25;;
70663;SDS011;58237;57.996;56.290;2022-11-20T14:02:17;35.92;;;17.25;;
70663;SDS011;58237;57.996;56.290;2022-11-20T14:04:47;28.02;;;13.02;;
70663;SDS011;58237;57.996;56.290;2022-11-20T14:07:13;39.05;;;16.45;;
70663;SDS011;58237;57.996;56.290;2022-11-20T14:09:48;27.80;;;8.90;;
70663;SDS011;58237;57.996;56.290;2022-11-20T14:12:15;36.17;;;17.15;;
70663;SDS011;58237;57.996;56.290;2022-11-20T14:14:47;43.58;;;15.88;;
70663;SDS011;58237;57.996;56.290;2022-11-20T14:17:23;36.35;;;16.90;;
70663;SDS011;58237;57.996;56.290;2022-11-20T14:19:51;41.72;;;18.40;;
70663;SDS011;58237;57.996;56.290;2022-11-20T14:22:22;49.35;;;22.20;;
70663;SDS011;58237;57.996;56.290;2022-11-20T14:25:32;51.63;;;24.15;;
70663;SDS011;58237;57.996;56.290;2022-11-20T14:27:34;64.50;;;27.10;;
70663;SDS011;58237;57.996;56.290;2022-11-20T14:30:01;47.22;;;22.50;;
70663;SDS011;58237;57.996;56.290;2022-11-20T14:32:27;45.05;;;21.35;;
70663;SDS011;58237;57.996;56.290;2022-11-20T14:34:53;50.45;;;20.25;;
70663;SDS011;58237;57.996;56.290;2022-11-20T14:37:25;46.33;;;18.42;;
70663;SDS011;58237;57.996;56.290;2022-11-20T14:39:52;41.15;;;18.90;;
70663;SDS011;58237;57.996;56.290;2022-11-20T14:42:19;41.97;;;17.92;;
70663;SDS011;58237;57.996;56.290;2022-11-20T14:44:45;41.67;;;21.92;;
70663;SDS011;58237;57.996;56.290;2022-11-20T14:47:11;57.17;;;27.08;;
70663;SDS011;58237;57.996;56.290;2022-11-20T14:49:37;55.33;;;25.45;;
70663;SDS011;58237;57.996;56.290;2022-11-20T14:52:10;49.08;;;24.00;;
70663;SDS011;58237;57.996;56.290;2022-11-20T14:54:55;67.85;;;30.58;;
70663;SDS011;58237;57.996;56.290;2022-11-20T14:57:31;50.42;;;22.92;;
70663;SDS011;58237;57.996;56.290;2022-11-20T15:02:41;47.70;;;22.38;;
70663;SDS011;58237;57.996;56.290;2022-11-20T15:05:06;61.65;;;28.02;;
70663;SDS011;58237;57.996;56.290;2022-11-20T15:07:33;79.20;;;31.75;;
70663;SDS011;58237;57.996;56.290;2022-11-20T15:10:09;66.85;;;28.90;;
70663;SDS011;58237;57.996;56.290;2022-11-20T15:12:35;46.30;;;23.05;;
70663;SDS011;58237;57.996;56.290;2022-11-20T15:15:01;40.58;;;21.17;;
70663;SDS011;58237;57.996;56.290;2022-11-20T15:17:28;62.80;;;26.05;;
70663;SDS011;58237;57.996;56.290;2022-11-20T15:19:53;53.92;;;21.67;;
70663;SDS011;58237;57.996;56.290;2022-11-20T15:22:19;51.70;;;20.83;;
70663;SDS011;58237;57.996;56.290;2022-11-20T15:24:45;37.80;;;15.75;;
70663;SDS011;58237;57.996;56.290;2022-11-20T15:27:10;45.22;;;19.45;;
70663;SDS011;58237;57.996;56.290;2022-11-20T15:29:35;49.97;;;22.50;;